Time;durP1;ratioP1;P1;durP2;ratioP2;P2;SDS_P1;SDS_P2;PMS_P1;PMS_P2;Temp;Humidity;BMP_temperature;BMP_pressure;BME280_temperature;BME280_humidity;BME280_pressure;Samples;Min_cycle;Max_cycle;Signal;HPM_P1;HPM_P2
2022/01/09 00:01:28;;;;;;;;;;;3.00;99.90;;;;;;5072560;28;20265;-74
2022/01/09 00:03:53;;;;;;;;;;;2.90;99.90;;;;;;5053164;28;19909;-74
2022/01/09 00:06:19;;;;;;;;;;;2.90;99.90;;;;;;5074435;28;20424;-74
2022/01/09 00:08:44;;;;;;;;;;;2.90;99.90;;;;;;5055649;28;19909;-73
2022/01/09 00:11:11;;;;;;;;;;;3.00;99.90;;;;;;5073538;28;19915;-73
2022/01/09 00:13:36;;;;;;;;;;;3.00;99.90;;;;;;5074627;28;19960;-73
2022/01/09 00:16:02;;;;;;;;;;;3.00;99.90;;;;;;5073372;28;19956;-74
2022/01/09 00:18:27;;;;;;;;;;;2.90;99.90;;;;;;5055370;28;19958;-74
2022/01/09 00:20:54;;;;;;;;;;;2.90;99.90;;;;;;5073470;28;19909;-74
2022/01/09 00:23:20;;;;;;;;;;;2.90;99.90;;;;;;5072807;28;20285;-74
2022/01/09 00:25:46;;;;;;;;;;;2.90;99.90;;;;;;5073168;28;19962;-74
2022/01/09 00:28:11;;;;;;;;;;;2.90;99.90;;;;;;5073220;28;19909;-74
2022/01/09 00:30:36;;;;;;;;;;;2.80;99.90;;;;;;5073245;28;19908;-73
2022/01/09 00:33:04;;;;;;;;;;;2.80;99.90;;;;;;5072754;28;19962;-74
2022/01/09 00:35:29;;;;;;;;;;;2.80;99.90;;;;;;5073176;28;19916;-74
2022/01/09 00:37:55;;;;;;;;;;;2.80;99.90;;;;;;5073288;28;19908;-74
2022/01/09 00:40:20;;;;;;;;;;;2.80;99.90;;;;;;5072999;28;19999;-74
2022/01/09 00:42:46;;;;;;;;;;;2.80;99.90;;;;;;5074574;28;20011;-74
2022/01/09 00:45:14;;;;;;;;;;;2.80;99.90;;;;;;5072539;28;20377;-74
2022/01/09 00:47:40;;;;;;;;;;;2.80;99.90;;;;;;5072974;28;20002;-74
2022/01/09 00:50:07;;;;;;;;;;;2.80;99.90;;;;;;5073319;28;19908;-74
2022/01/09 00:52:32;;;;;;;;;;;2.80;99.90;;;;;;5072790;28;19912;-74
2022/01/09 00:54:58;;;;;;;;;;;2.80;99.90;;;;;;5071841;28;19912;-74
2022/01/09 00:57:23;;;;;;;;;;;2.80;99.90;;;;;;5072836;28;19909;-73
2022/01/09 00:59:49;;;;;;;;;;;2.80;99.90;;;;;;5072790;28;19908;-75
2022/01/09 01:02:15;;;;;;;;;;;2.80;99.90;;;;;;5072734;28;19908;-74
2022/01/09 01:04:40;;;;;;;;;;;2.90;99.90;;;;;;5071995;28;19909;-74
2022/01/09 01:07:06;;;;;;;;;;;2.90;99.90;;;;;;5072511;28;19915;-74
2022/01/09 01:09:31;;;;;;;;;;;2.80;99.90;;;;;;5072213;28;19920;-73
2022/01/09 01:11:57;;;;;;;;;;;2.80;99.90;;;;;;5072507;28;19908;-75
2022/01/09 01:14:24;;;;;;;;;;;2.70;99.90;;;;;;5073434;28;19923;-74
2022/01/09 01:16:50;;;;;;;;;;;2.80;99.90;;;;;;5054606;28;20277;-74
2022/01/09 01:19:15;;;;;;;;;;;2.70;99.90;;;;;;5072129;28;19908;-74
2022/01/09 01:21:41;;;;;;;;;;;2.80;99.90;;;;;;5072198;28;19995;-74
2022/01/09 01:24:07;;;;;;;;;;;2.80;99.90;;;;;;5053543;28;19913;-74
2022/01/09 01:26:32;;;;;;;;;;;2.80;99.90;;;;;;5072094;28;19912;-74
2022/01/09 01:28:58;;;;;;;;;;;2.80;99.90;;;;;;5072015;28;19916;-75
2022/01/09 01:31:23;;;;;;;;;;;2.80;99.90;;;;;;5054249;28;19912;-74
2022/01/09 01:33:49;;;;;;;;;;;2.80;99.90;;;;;;5071331;28;20573;-74
2022/01/09 01:36:14;;;;;;;;;;;2.90;99.90;;;;;;5071924;28;19908;-74
2022/01/09 01:38:40;;;;;;;;;;;2.90;99.90;;;;;;5072327;28;19909;-74
2022/01/09 01:41:05;;;;;;;;;;;2.80;99.90;;;;;;5071844;28;19924;-74
2022/01/09 01:43:31;;;;;;;;;;;2.80;99.90;;;;;;5073197;28;19977;-74
2022/01/09 01:45:59;;;;;;;;;;;2.80;99.90;;;;;;5071447;28;19909;-74
2022/01/09 01:48:25;;;;;;;;;;;2.80;99.90;;;;;;5054023;28;19916;-74
2022/01/09 01:50:51;;;;;;;;;;;2.80;99.90;;;;;;5071618;28;20289;-75
2022/01/09 01:53:19;;;;;;;;;;;2.80;99.90;;;;;;5071167;28;19934;-74
2022/01/09 01:55:48;;;;;;;;;;;2.90;99.90;;;;;;5071526;28;19915;-73
2022/01/09 01:58:13;;;;;;;;;;;2.80;99.90;;;;;;5071903;28;19946;-74
2022/01/09 02:00:40;;;;;;;;;;;2.90;99.90;;;;;;5071590;28;20397;-74
2022/01/09 02:03:06;;;;;;;;;;;2.90;99.90;;;;;;5071397;28;19952;-73
2022/01/09 02:05:31;;;;;;;;;;;2.90;99.90;;;;;;5070694;28;19951;-74
2022/01/09 02:07:59;;;;;;;;;;;3.00;99.90;;;;;;5071424;28;19915;-74
2022/01/09 02:10:25;;;;;;;;;;;2.90;99.90;;;;;;5071419;28;19931;-73
2022/01/09 02:12:54;;;;;;;;;;;2.90;99.90;;;;;;5073132;28;20376;-74
2022/01/09 02:15:25;;;;;;;;;;;2.90;99.90;;;;;;5070629;28;20251;-74
2022/01/09 02:17:51;;;;;;;;;;;3.00;99.90;;;;;;5071022;28;19908;-74
2022/01/09 02:20:16;;;;;;;;;;;2.90;99.90;;;;;;5053357;28;19915;-75
2022/01/09 02:22:42;;;;;;;;;;;2.90;99.90;;;;;;5070967;28;20369;-74
2022/01/09 02:25:07;;;;;;;;;;;2.70;99.90;;;;;;5070877;28;19908;-75
2022/01/09 02:27:33;;;;;;;;;;;2.60;99.90;;;;;;5071396;28;20001;-75
2022/01/09 02:29:58;;;;;;;;;;;2.60;99.90;;;;;;5071115;28;19915;-74
2022/01/09 02:32:24;;;;;;;;;;;2.50;99.90;;;;;;5053322;28;20431;-75
2022/01/09 02:34:50;;;;;;;;;;;2.50;99.90;;;;;;5070511;28;19913;-74
2022/01/09 02:37:15;;;;;;;;;;;2.60;99.90;;;;;;5071125;28;19912;-75
2022/01/09 02:39:41;;;;;;;;;;;2.50;99.90;;;;;;5071110;28;20381;-74
2022/01/09 02:42:16;;;;;;;;;;;2.70;99.90;;;;;;5073672;28;19916;-74
2022/01/09 02:44:42;;;;;;;;;;;2.50;99.90;;;;;;5054985;28;20331;-73
2022/01/09 02:47:07;;;;;;;;;;;2.60;99.90;;;;;;5070991;28;19908;-74
2022/01/09 02:49:33;;;;;;;;;;;2.40;99.90;;;;;;5070955;28;20000;-75
2022/01/09 02:51:59;;;;;;;;;;;2.40;99.90;;;;;;5070934;28;20349;-74
2022/01/09 02:55:25;;;;;;;;;;;2.40;99.90;;;;;;5070507;28;19919;-74
2022/01/09 02:57:19;;;;;;;;;;;2.60;99.90;;;;;;5053288;28;19908;-74
2022/01/09 02:59:45;;;;;;;;;;;2.60;99.90;;;;;;5072019;28;19954;-74
2022/01/09 03:02:10;;;;;;;;;;;2.60;99.90;;;;;;5072421;28;19908;-75
2022/01/09 03:04:35;;;;;;;;;;;2.60;99.90;;;;;;5071383;28;20054;-74
2022/01/09 03:07:01;;;;;;;;;;;2.60;99.90;;;;;;5070808;28;19913;-74
2022/01/09 03:09:26;;;;;;;;;;;2.70;99.90;;;;;;5070924;28;19913;-74
2022/01/09 03:11:52;;;;;;;;;;;2.60;99.90;;;;;;5070771;28;20322;-74
2022/01/09 03:14:18;;;;;;;;;;;2.60;99.90;;;;;;5070252;28;20047;-74
2022/01/09 03:16:43;;;;;;;;;;;2.50;99.90;;;;;;5071703;28;19932;-74
2022/01/09 03:19:09;;;;;;;;;;;2.40;99.90;;;;;;5056582;28;20360;-73
2022/01/09 03:21:34;;;;;;;;;;;2.40;99.90;;;;;;5074430;28;19915;-74
2022/01/09 03:23:59;;;;;;;;;;;2.40;99.90;;;;;;5074207;28;19991;-74
2022/01/09 03:26:25;;;;;;;;;;;2.40;99.90;;;;;;5074300;28;19962;-74
2022/01/09 03:28:50;;;;;;;;;;;2.50;99.90;;;;;;5074416;28;19908;-75
2022/01/09 03:31:16;;;;;;;;;;;2.60;99.90;;;;;;5074629;28;19930;-74
2022/01/09 03:33:41;;;;;;;;;;;2.70;99.90;;;;;;5074281;28;19913;-75
2022/01/09 03:36:07;;;;;;;;;;;2.70;99.90;;;;;;5074163;28;19944;-74
2022/01/09 03:38:32;;;;;;;;;;;2.70;99.90;;;;;;5056255;28;19986;-74
2022/01/09 03:40:58;;;;;;;;;;;2.70;99.90;;;;;;5074162;28;19908;-74
2022/01/09 03:43:24;;;;;;;;;;;2.60;99.90;;;;;;5073599;28;19908;-73
2022/01/09 03:45:50;;;;;;;;;;;2.50;99.90;;;;;;5074678;28;19915;-74
2022/01/09 03:48:15;;;;;;;;;;;2.50;99.90;;;;;;5074006;28;19908;-75
2022/01/09 03:50:42;;;;;;;;;;;2.50;99.90;;;;;;5074429;28;20431;-74
2022/01/09 03:53:11;;;;;;;;;;;2.40;99.90;;;;;;5073434;28;19908;-74
2022/01/09 03:55:37;;;;;;;;;;;2.40;99.90;;;;;;5073911;28;19908;-74
2022/01/09 03:58:02;;;;;;;;;;;2.40;99.90;;;;;;5073744;28;20073;-74
2022/01/09 04:00:28;;;;;;;;;;;2.40;99.90;;;;;;5073585;28;19915;-74
2022/01/09 04:02:54;;;;;;;;;;;2.40;99.90;;;;;;5073975;28;19908;-73
2022/01/09 04:05:19;;;;;;;;;;;2.50;99.90;;;;;;5073076;28;20323;-74
2022/01/09 04:07:45;;;;;;;;;;;2.60;99.90;;;;;;5073454;28;19909;-74
2022/01/09 04:10:10;;;;;;;;;;;2.80;99.90;;;;;;5073524;28;19915;-74
2022/01/09 04:12:47;;;;;;;;;;;2.80;99.90;;;;;;5073319;28;20353;-73
2022/01/09 04:15:13;;;;;;;;;;;2.90;99.90;;;;;;5072752;28;19959;-74
2022/01/09 04:17:49;;;;;;;;;;;2.90;99.90;;;;;;5073055;28;19975;-74
2022/01/09 04:20:14;;;;;;;;;;;2.80;99.90;;;;;;5073395;28;20377;-74
2022/01/09 04:22:40;;;;;;;;;;;2.90;99.90;;;;;;5073304;28;19962;-74
2022/01/09 04:25:07;;;;;;;;;;;2.90;99.90;;;;;;5072958;28;19948;-75
2022/01/09 04:27:32;;;;;;;;;;;2.80;99.90;;;;;;5073525;28;19958;-75
2022/01/09 04:29:58;;;;;;;;;;;2.80;99.90;;;;;;5072674;28;20276;-74
2022/01/09 04:32:24;;;;;;;;;;;2.80;99.90;;;;;;5073370;28;19962;-74
2022/01/09 04:34:50;;;;;;;;;;;2.80;99.90;;;;;;5065555;28;19960;-74
2022/01/09 04:37:15;;;;;;;;;;;2.80;99.90;;;;;;5093414;28;19908;-75
2022/01/09 04:39:41;;;;;;;;;;;2.90;99.90;;;;;;5093234;28;20003;-74
2022/01/09 04:42:07;;;;;;;;;;;2.90;99.90;;;;;;5092984;28;19919;-74
2022/01/09 04:44:33;;;;;;;;;;;2.80;99.90;;;;;;5092666;28;19915;-76
2022/01/09 04:47:03;;;;;;;;;;;2.70;99.90;;;;;;5088959;28;19908;-76
2022/01/09 04:49:36;;;;;;;;;;;2.60;99.90;;;;;;5054716;28;19909;-75
2022/01/09 04:52:03;;;;;;;;;;;2.50;99.90;;;;;;5054851;28;20375;-76
2022/01/09 04:54:29;;;;;;;;;;;2.40;99.90;;;;;;5072078;28;20006;-75
2022/01/09 04:56:54;;;;;;;;;;;2.30;99.90;;;;;;5072706;28;20507;-75
2022/01/09 04:59:20;;;;;;;;;;;2.20;99.90;;;;;;5072504;28;19912;-73
2022/01/09 05:01:45;;;;;;;;;;;2.10;99.90;;;;;;5054631;28;19962;-74
2022/01/09 05:04:11;;;;;;;;;;;2.00;99.90;;;;;;5054937;28;19908;-74
2022/01/09 05:06:36;;;;;;;;;;;1.90;99.90;;;;;;5054523;28;19912;-74
2022/01/09 05:09:02;;;;;;;;;;;1.80;99.90;;;;;;5072172;28;19923;-74
2022/01/09 05:11:28;;;;;;;;;;;1.80;99.90;;;;;;5072345;28;20340;-74
2022/01/09 05:13:53;;;;;;;;;;;1.70;99.90;;;;;;5071605;28;19917;-74
2022/01/09 05:16:18;;;;;;;;;;;1.60;99.90;;;;;;5072303;28;19912;-74
2022/01/09 05:18:58;;;;;;;;;;;1.60;99.90;;;;;;5072146;28;20373;-74
2022/01/09 05:21:24;;;;;;;;;;;1.70;99.90;;;;;;5054277;28;19908;-73
2022/01/09 05:23:49;;;;;;;;;;;1.60;99.90;;;;;;5071406;28;19909;-75
2022/01/09 05:26:15;;;;;;;;;;;1.50;99.90;;;;;;5072071;28;20000;-75
2022/01/09 05:28:40;;;;;;;;;;;1.40;99.90;;;;;;5072134;28;19978;-74
2022/01/09 05:31:06;;;;;;;;;;;1.40;99.90;;;;;;5073870;28;19916;-73
2022/01/09 05:33:31;;;;;;;;;;;1.30;99.90;;;;;;5075985;28;19923;-74
2022/01/09 05:35:57;;;;;;;;;;;1.30;99.90;;;;;;5071473;28;19908;-75
2022/01/09 05:38:22;;;;;;;;;;;1.20;99.90;;;;;;5071753;28;19908;-75
2022/01/09 05:40:48;;;;;;;;;;;1.30;99.90;;;;;;5070909;28;19916;-75
2022/01/09 05:43:14;;;;;;;;;;;1.30;99.90;;;;;;5071376;28;19948;-74
2022/01/09 05:45:39;;;;;;;;;;;1.30;99.90;;;;;;5071507;28;19913;-74
2022/01/09 05:48:06;;;;;;;;;;;1.30;99.90;;;;;;5071762;28;20393;-74
2022/01/09 05:50:31;;;;;;;;;;;1.30;99.90;;;;;;5071609;28;19943;-74
2022/01/09 05:52:57;;;;;;;;;;;1.30;99.90;;;;;;5053261;28;19962;-75
2022/01/09 05:55:22;;;;;;;;;;;1.30;99.90;;;;;;5071246;28;19970;-73
2022/01/09 05:57:48;;;;;;;;;;;1.30;99.90;;;;;;5071699;28;19908;-75
2022/01/09 06:00:14;;;;;;;;;;;1.30;99.90;;;;;;5053506;28;19908;-74
2022/01/09 06:02:40;;;;;;;;;;;1.30;99.90;;;;;;5073370;28;19908;-75
2022/01/09 06:05:07;;;;;;;;;;;1.30;99.90;;;;;;5090872;28;19908;-75
2022/01/09 06:07:33;;;;;;;;;;;1.30;99.90;;;;;;5073323;28;20403;-75
2022/01/09 06:09:58;;;;;;;;;;;1.20;99.90;;;;;;5073751;28;19909;-75
2022/01/09 06:12:24;;;;;;;;;;;1.20;99.90;;;;;;5091856;28;19915;-75
2022/01/09 06:14:49;;;;;;;;;;;1.10;99.90;;;;;;5072910;28;20373;-75
2022/01/09 06:17:15;;;;;;;;;;;1.10;99.90;;;;;;5091388;28;19987;-75
2022/01/09 06:19:40;;;;;;;;;;;1.10;99.90;;;;;;5073800;28;19939;-75
2022/01/09 06:22:06;;;;;;;;;;;1.10;99.90;;;;;;5091121;28;19908;-75
2022/01/09 06:24:31;;;;;;;;;;;1.10;99.90;;;;;;5091012;28;19915;-74
2022/01/09 06:26:57;;;;;;;;;;;1.00;99.90;;;;;;5091361;28;19948;-75
2022/01/09 06:29:22;;;;;;;;;;;1.00;99.90;;;;;;5091336;28;19908;-75
2022/01/09 06:31:48;;;;;;;;;;;1.00;99.90;;;;;;5091210;28;19908;-75
2022/01/09 06:34:13;;;;;;;;;;;0.90;99.90;;;;;;5076946;28;20331;-75
2022/01/09 06:36:40;;;;;;;;;;;0.90;99.90;;;;;;5071270;28;19914;-74
2022/01/09 06:39:05;;;;;;;;;;;0.90;99.90;;;;;;5071185;28;19909;-74
2022/01/09 06:41:31;;;;;;;;;;;0.90;99.90;;;;;;5071050;28;19916;-74
2022/01/09 06:43:57;;;;;;;;;;;0.80;99.90;;;;;;5070610;28;19908;-74
2022/01/09 06:46:22;;;;;;;;;;;0.80;99.90;;;;;;5070903;28;20007;-74
2022/01/09 06:48:48;;;;;;;;;;;0.80;99.90;;;;;;5071041;28;19908;-73
2022/01/09 06:51:13;;;;;;;;;;;0.80;99.90;;;;;;5070980;28;19909;-74
2022/01/09 06:53:39;;;;;;;;;;;0.90;99.90;;;;;;5074320;28;20428;-74
2022/01/09 06:56:04;;;;;;;;;;;0.90;99.90;;;;;;5074876;28;19909;-74
2022/01/09 06:58:30;;;;;;;;;;;0.90;99.90;;;;;;5074614;28;20400;-73
2022/01/09 07:00:55;;;;;;;;;;;0.80;99.90;;;;;;5074820;28;19908;-74
2022/01/09 07:03:22;;;;;;;;;;;0.80;99.90;;;;;;5075265;28;19916;-74
2022/01/09 07:05:49;;;;;;;;;;;0.80;99.90;;;;;;5056361;28;20436;-73
2022/01/09 07:08:14;;;;;;;;;;;0.80;99.90;;;;;;5074575;28;19955;-74
2022/01/09 07:10:39;;;;;;;;;;;0.80;99.90;;;;;;5074815;28;19912;-75
2022/01/09 07:13:05;;;;;;;;;;;0.80;99.90;;;;;;5074240;28;20296;-75
2022/01/09 07:15:31;;;;;;;;;;;0.80;99.90;;;;;;5074522;28;20487;-74
2022/01/09 07:17:56;;;;;;;;;;;0.90;99.90;;;;;;5074483;28;20355;-73
2022/01/09 07:20:22;;;;;;;;;;;0.90;99.90;;;;;;5074457;28;20562;-75
2022/01/09 07:22:47;;;;;;;;;;;1.00;99.90;;;;;;5074271;28;20372;-75
2022/01/09 07:25:13;;;;;;;;;;;0.90;99.90;;;;;;5073952;28;19909;-74
2022/01/09 07:27:38;;;;;;;;;;;0.90;99.90;;;;;;5074310;28;19954;-75
2022/01/09 07:30:04;;;;;;;;;;;1.00;99.90;;;;;;5056477;28;19962;-75
2022/01/09 07:32:30;;;;;;;;;;;1.10;99.90;;;;;;5074601;28;19908;-75
2022/01/09 07:34:57;;;;;;;;;;;1.10;99.90;;;;;;5074041;28;19931;-74
2022/01/09 07:37:23;;;;;;;;;;;1.10;99.90;;;;;;5073900;28;19961;-75
2022/01/09 07:39:50;;;;;;;;;;;1.10;99.90;;;;;;5074256;28;19912;-74
2022/01/09 07:42:15;;;;;;;;;;;1.20;99.90;;;;;;5074047;28;19909;-73
2022/01/09 07:44:41;;;;;;;;;;;1.20;99.90;;;;;;5073452;28;19916;-75
2022/01/09 07:47:06;;;;;;;;;;;1.20;99.90;;;;;;5074061;28;19909;-75
2022/01/09 07:49:32;;;;;;;;;;;1.20;99.90;;;;;;5073832;28;19912;-75
2022/01/09 07:51:57;;;;;;;;;;;1.30;99.90;;;;;;5073941;28;19915;-73
2022/01/09 07:54:23;;;;;;;;;;;1.30;99.90;;;;;;5073235;28;19913;-75
2022/01/09 07:56:48;;;;;;;;;;;1.30;99.90;;;;;;5073846;28;20327;-75
2022/01/09 07:59:14;;;;;;;;;;;1.40;99.90;;;;;;5073758;28;20014;-74
2022/01/09 08:01:39;;;;;;;;;;;1.50;99.90;;;;;;5073870;28;20281;-74
2022/01/09 08:04:05;;;;;;;;;;;1.50;99.90;;;;;;5081469;28;19909;-74
2022/01/09 08:06:30;;;;;;;;;;;1.50;99.90;;;;;;5073599;28;19909;-74
2022/01/09 08:08:56;;;;;;;;;;;1.50;99.90;;;;;;5073579;28;19954;-74
2022/01/09 08:11:22;;;;;;;;;;;1.50;99.90;;;;;;5055651;28;20284;-75
2022/01/09 08:13:48;;;;;;;;;;;1.50;99.90;;;;;;5072817;28;19912;-74
2022/01/09 08:16:15;;;;;;;;;;;1.50;99.90;;;;;;5073488;28;19928;-74
2022/01/09 08:18:40;;;;;;;;;;;1.40;99.90;;;;;;5055301;28;20288;-74
2022/01/09 08:21:06;;;;;;;;;;;1.50;99.90;;;;;;5073456;28;19909;-75
2022/01/09 08:23:31;;;;;;;;;;;1.50;99.90;;;;;;5072962;28;19920;-74
2022/01/09 08:25:57;;;;;;;;;;;1.40;99.90;;;;;;5074130;28;19909;-75
2022/01/09 08:28:22;;;;;;;;;;;1.40;99.90;;;;;;5073418;28;19908;-73
2022/01/09 08:30:48;;;;;;;;;;;1.40;99.90;;;;;;5076159;28;20091;-74
2022/01/09 08:33:13;;;;;;;;;;;1.30;99.90;;;;;;5074309;28;19999;-74
2022/01/09 08:35:39;;;;;;;;;;;1.40;99.90;;;;;;5073041;28;19916;-74
2022/01/09 08:38:04;;;;;;;;;;;1.40;99.90;;;;;;5073357;28;20004;-74
2022/01/09 08:40:30;;;;;;;;;;;1.50;99.90;;;;;;5073009;28;19908;-74
2022/01/09 08:42:55;;;;;;;;;;;1.50;99.90;;;;;;5073166;28;20007;-74
2022/01/09 08:45:23;;;;;;;;;;;1.50;99.90;;;;;;5073015;28;19909;-73
2022/01/09 08:47:48;;;;;;;;;;;1.50;99.90;;;;;;5072782;28;19962;-75
2022/01/09 08:50:15;;;;;;;;;;;1.50;99.90;;;;;;5072844;28;19912;-74
2022/01/09 08:52:40;;;;;;;;;;;1.50;99.90;;;;;;5072934;28;20369;-74
2022/01/09 08:55:06;;;;;;;;;;;1.50;99.90;;;;;;5072347;28;19912;-74
2022/01/09 08:57:32;;;;;;;;;;;1.40;99.90;;;;;;5072694;28;19913;-74
2022/01/09 08:59:57;;;;;;;;;;;1.50;99.90;;;;;;5072581;28;19961;-75
2022/01/09 09:02:23;;;;;;;;;;;1.60;99.90;;;;;;5072440;28;19909;-73
2022/01/09 09:04:49;;;;;;;;;;;2.00;99.90;;;;;;5072951;28;19908;-75
2022/01/09 09:07:18;;;;;;;;;;;3.00;99.90;;;;;;5072584;28;19916;-75
2022/01/09 09:09:44;;;;;;;;;;;4.20;99.90;;;;;;5072384;28;19909;-75
2022/01/09 09:12:09;;;;;;;;;;;4.30;99.90;;;;;;5072278;28;19909;-75
2022/01/09 09:14:35;;;;;;;;;;;4.20;99.90;;;;;;5069609;28;19917;-75
2022/01/09 09:17:00;;;;;;;;;;;3.80;99.90;;;;;;5072377;28;19915;-75
2022/01/09 09:19:26;;;;;;;;;;;3.80;99.90;;;;;;5072280;28;20396;-75
2022/01/09 09:21:51;;;;;;;;;;;4.00;99.90;;;;;;5072296;28;19916;-74
2022/01/09 09:24:17;;;;;;;;;;;4.00;99.90;;;;;;5072124;28;19915;-75
2022/01/09 09:26:42;;;;;;;;;;;3.80;99.90;;;;;;5072102;28;19913;-75
2022/01/09 09:29:08;;;;;;;;;;;3.90;99.90;;;;;;5076285;28;19913;-75
2022/01/09 09:31:34;;;;;;;;;;;3.70;99.90;;;;;;5072393;28;19908;-74
2022/01/09 09:33:59;;;;;;;;;;;4.30;99.90;;;;;;5072045;28;20146;-75
2022/01/09 09:36:25;;;;;;;;;;;4.90;99.90;;;;;;5072341;28;19908;-74
2022/01/09 09:38:51;;;;;;;;;;;5.40;99.90;;;;;;5072593;28;20392;-75
2022/01/09 09:41:16;;;;;;;;;;;6.50;99.90;;;;;;5072097;28;19908;-74
2022/01/09 09:43:42;;;;;;;;;;;5.90;99.90;;;;;;5071676;28;19913;-73
2022/01/09 09:46:08;;;;;;;;;;;5.20;99.90;;;;;;5071880;28;19908;-75
2022/01/09 09:48:33;;;;;;;;;;;5.80;99.90;;;;;;5071980;28;19916;-74
2022/01/09 09:50:59;;;;;;;;;;;4.90;99.90;;;;;;5072153;28;19909;-74
2022/01/09 09:53:24;;;;;;;;;;;4.10;99.90;;;;;;5071846;28;19908;-75
2022/01/09 09:55:53;;;;;;;;;;;3.80;99.90;;;;;;5072114;28;19916;-74
2022/01/09 09:58:19;;;;;;;;;;;3.60;99.90;;;;;;5074062;28;20003;-74
2022/01/09 10:00:55;;;;;;;;;;;3.50;99.90;;;;;;5073641;28;19943;-74
2022/01/09 10:03:27;;;;;;;;;;;3.40;99.90;;;;;;5071817;28;19935;-74
2022/01/09 10:05:53;;;;;;;;;;;3.40;99.90;;;;;;5071698;28;20011;-74
2022/01/09 10:08:19;;;;;;;;;;;3.30;99.90;;;;;;5072241;28;19944;-74
2022/01/09 10:10:45;;;;;;;;;;;3.30;99.90;;;;;;5053943;28;19909;-73
2022/01/09 10:13:15;;;;;;;;;;;3.50;99.90;;;;;;5053195;28;19935;-75
2022/01/09 10:15:45;;;;;;;;;;;4.00;99.90;;;;;;5053533;28;20192;-73
2022/01/09 10:18:11;;;;;;;;;;;4.50;99.90;;;;;;5071917;28;19939;-73
2022/01/09 10:20:36;;;;;;;;;;;4.80;99.90;;;;;;5071750;28;19909;-73
2022/01/09 10:23:02;;;;;;;;;;;4.80;99.90;;;;;;5071293;28;19913;-74
2022/01/09 10:25:32;;;;;;;;;;;5.80;99.90;;;;;;5053426;28;20459;-73
2022/01/09 10:28:01;;;;;;;;;;;5.10;99.90;;;;;;5053301;28;19915;-74
2022/01/09 10:30:29;;;;;;;;;;;5.50;99.90;;;;;;5076077;28;20500;-73
2022/01/09 10:32:56;;;;;;;;;;;5.80;99.90;;;;;;5071768;28;19915;-73
2022/01/09 10:35:22;;;;;;;;;;;5.20;99.90;;;;;;5071732;28;19916;-74
2022/01/09 10:38:01;;;;;;;;;;;5.10;99.90;;;;;;5071494;28;20403;-74
2022/01/09 10:40:29;;;;;;;;;;;5.20;99.90;;;;;;5072092;28;20003;-73
2022/01/09 10:43:11;;;;;;;;;;;5.30;99.90;;;;;;5071950;28;19908;-73
2022/01/09 10:45:38;;;;;;;;;;;5.10;99.90;;;;;;5071772;28;19918;-73
2022/01/09 10:48:08;;;;;;;;;;;4.40;99.90;;;;;;5071477;28;19912;-73
2022/01/09 10:50:36;;;;;;;;;;;4.00;99.90;;;;;;5071793;28;19913;-74
2022/01/09 10:53:11;;;;;;;;;;;3.60;99.90;;;;;;5071127;28;19915;-73
2022/01/09 10:55:37;;;;;;;;;;;3.30;99.90;;;;;;5053326;28;19918;-73
2022/01/09 10:58:14;;;;;;;;;;;3.20;99.90;;;;;;5071359;28;20447;-73
2022/01/09 11:00:39;;;;;;;;;;;3.30;99.90;;;;;;5071520;28;19995;-73
2022/01/09 11:03:05;;;;;;;;;;;3.40;99.90;;;;;;5071067;28;20531;-74
2022/01/09 11:05:31;;;;;;;;;;;3.80;99.90;;;;;;5071634;28;19909;-73
2022/01/09 11:07:57;;;;;;;;;;;4.00;99.90;;;;;;5071503;28;20381;-74
2022/01/09 11:10:23;;;;;;;;;;;4.40;99.90;;;;;;5071235;28;20380;-74
2022/01/09 11:12:50;;;;;;;;;;;4.60;99.90;;;;;;5071094;28;19909;-74
2022/01/09 11:15:18;;;;;;;;;;;5.10;99.90;;;;;;5070603;28;20293;-74
2022/01/09 11:17:45;;;;;;;;;;;5.50;99.90;;;;;;5072498;28;19909;-74
2022/01/09 11:20:10;;;;;;;;;;;5.50;99.90;;;;;;5090882;28;20011;-73
2022/01/09 11:22:36;;;;;;;;;;;5.30;99.90;;;;;;5091348;28;20348;-74
2022/01/09 11:25:22;;;;;;;;;;;4.90;99.90;;;;;;5090731;28;19919;-73
2022/01/09 11:28:06;;;;;;;;;;;4.70;99.90;;;;;;5091399;28;19919;-73
2022/01/09 11:30:50;;;;;;;;;;;4.50;99.90;;;;;;5090933;28;19919;-74
2022/01/09 11:33:25;;;;;;;;;;;4.20;99.90;;;;;;5090872;28;19969;-74
2022/01/09 11:35:57;;;;;;;;;;;3.90;99.90;;;;;;5091126;28;20288;-75
2022/01/09 11:38:38;;;;;;;;;;;3.90;99.90;;;;;;5091835;28;19912;-74
2022/01/09 11:41:33;;;;;;;;;;;3.60;99.90;;;;;;5094711;28;20284;-74
2022/01/09 11:44:00;;;;;;;;;;;3.50;99.90;;;;;;5066443;28;20006;-74
2022/01/09 11:46:27;;;;;;;;;;;3.60;99.90;;;;;;5076625;28;19912;-74
2022/01/09 11:48:53;;;;;;;;;;;3.70;99.90;;;;;;5086131;28;19956;-74
2022/01/09 11:51:25;;;;;;;;;;;4.00;99.90;;;;;;5094228;28;19908;-73
2022/01/09 11:54:05;;;;;;;;;;;4.10;99.90;;;;;;5093984;28;19948;-74
2022/01/09 11:56:48;;;;;;;;;;;4.20;99.90;;;;;;5094618;28;19914;-73
2022/01/09 11:59:33;;;;;;;;;;;4.20;99.90;;;;;;5094389;28;20280;-74
2022/01/09 12:02:03;;;;;;;;;;;4.20;99.90;;;;;;5093856;28;19914;-74
2022/01/09 12:04:38;;;;;;;;;;;4.00;99.90;;;;;;5094030;28;19915;-74
2022/01/09 12:07:07;;;;;;;;;;;4.20;99.90;;;;;;5094332;28;19908;-73
2022/01/09 12:09:45;;;;;;;;;;;4.20;99.90;;;;;;5094440;28;19915;-74
2022/01/09 12:12:12;;;;;;;;;;;4.10;99.90;;;;;;5094183;28;19908;-74
2022/01/09 12:17:33;;;;;;;;;;;4.10;99.90;;;;;;5087012;28;19912;-73
2022/01/09 12:20:08;;;;;;;;;;;4.00;99.90;;;;;;5073455;28;19909;-73
2022/01/09 12:22:45;;;;;;;;;;;4.00;99.90;;;;;;5074080;28;19916;-73
2022/01/09 12:25:32;;;;;;;;;;;3.90;99.90;;;;;;5073207;28;19915;-73
2022/01/09 12:28:09;;;;;;;;;;;4.00;99.90;;;;;;5073764;28;19912;-73
2022/01/09 12:30:44;;;;;;;;;;;4.00;99.90;;;;;;5074020;28;19975;-74
2022/01/09 12:33:21;;;;;;;;;;;4.00;99.90;;;;;;5073869;28;19912;-73
2022/01/09 12:35:57;;;;;;;;;;;4.10;99.90;;;;;;5073152;28;20365;-74
2022/01/09 12:38:24;;;;;;;;;;;4.10;99.90;;;;;;5055961;28;19916;-74
2022/01/09 12:40:56;;;;;;;;;;;4.30;99.90;;;;;;5073187;28;19936;-74
2022/01/09 12:43:23;;;;;;;;;;;4.00;99.90;;;;;;5072832;28;19952;-73
2022/01/09 12:45:49;;;;;;;;;;;3.80;99.90;;;;;;5074163;28;20107;-74
2022/01/09 12:48:21;;;;;;;;;;;3.60;99.90;;;;;;5073408;28;19909;-74
2022/01/09 12:50:50;;;;;;;;;;;3.60;99.90;;;;;;5072813;28;19970;-74
2022/01/09 12:53:28;;;;;;;;;;;3.70;99.90;;;;;;5073107;28;19908;-73
2022/01/09 12:55:53;;;;;;;;;;;4.10;99.90;;;;;;5073194;28;20426;-74
2022/01/09 12:58:26;;;;;;;;;;;4.30;99.90;;;;;;5075184;28;20003;-74
2022/01/09 13:00:52;;;;;;;;;;;4.20;99.90;;;;;;5073953;28;19977;-73
2022/01/09 13:03:19;;;;;;;;;;;4.30;99.90;;;;;;5072884;28;19909;-73
2022/01/09 13:05:52;;;;;;;;;;;4.30;99.90;;;;;;5073132;28;20369;-73
2022/01/09 13:08:18;;;;;;;;;;;4.20;99.90;;;;;;5072816;28;20294;-74
2022/01/09 13:10:44;;;;;;;;;;;4.20;99.90;;;;;;5073111;28;20452;-74
2022/01/09 13:13:11;;;;;;;;;;;4.10;99.90;;;;;;5072445;28;19992;-74
2022/01/09 13:15:38;;;;;;;;;;;4.20;99.90;;;;;;5072602;28;19995;-73
2022/01/09 13:18:04;;;;;;;;;;;3.90;99.90;;;;;;5072726;28;20405;-74
2022/01/09 13:20:30;;;;;;;;;;;3.70;99.90;;;;;;5072386;28;20030;-74
2022/01/09 13:23:06;;;;;;;;;;;3.40;99.90;;;;;;5072278;28;20339;-75
2022/01/09 13:25:42;;;;;;;;;;;3.30;99.90;;;;;;5072598;28;19961;-73
2022/01/09 13:28:16;;;;;;;;;;;3.30;99.90;;;;;;5072828;28;19909;-74
2022/01/09 13:30:41;;;;;;;;;;;3.30;99.90;;;;;;5074701;28;19908;-73
2022/01/09 13:33:07;;;;;;;;;;;3.20;99.90;;;;;;5071823;28;20277;-73
2022/01/09 13:35:32;;;;;;;;;;;3.20;99.90;;;;;;5071999;28;20006;-73
2022/01/09 13:37:58;;;;;;;;;;;3.20;99.90;;;;;;5072525;28;19909;-75
2022/01/09 13:40:23;;;;;;;;;;;3.30;99.90;;;;;;5072615;28;19916;-73
2022/01/09 13:42:49;;;;;;;;;;;3.30;99.90;;;;;;5072660;28;19915;-73
2022/01/09 13:45:18;;;;;;;;;;;3.20;99.90;;;;;;5054361;28;20331;-73
2022/01/09 13:47:51;;;;;;;;;;;3.10;99.90;;;;;;5053962;28;20385;-73
2022/01/09 13:50:18;;;;;;;;;;;3.10;99.90;;;;;;5071573;28;20342;-73
2022/01/09 13:52:44;;;;;;;;;;;3.10;99.90;;;;;;5071725;28;20384;-74
2022/01/09 13:55:16;;;;;;;;;;;3.10;99.90;;;;;;5072189;28;19912;-73
2022/01/09 13:58:01;;;;;;;;;;;3.30;99.90;;;;;;5071726;28;19915;-73
2022/01/09 14:00:27;;;;;;;;;;;3.50;99.90;;;;;;5071551;28;19909;-75
2022/01/09 14:02:53;;;;;;;;;;;3.60;99.90;;;;;;5070898;28;19913;-74
2022/01/09 14:05:19;;;;;;;;;;;3.40;99.90;;;;;;5071287;28;20388;-74
2022/01/09 14:07:49;;;;;;;;;;;3.20;99.90;;;;;;5071830;28;19913;-74
2022/01/09 14:10:15;;;;;;;;;;;3.30;99.90;;;;;;5072098;28;19908;-74
2022/01/09 14:12:41;;;;;;;;;;;3.30;99.90;;;;;;5071661;28;19990;-74
2022/01/09 14:15:11;;;;;;;;;;;3.40;99.90;;;;;;5070642;28;19974;-74
2022/01/09 14:17:37;;;;;;;;;;;3.30;99.90;;;;;;5071635;28;20436;-75
2022/01/09 14:20:13;;;;;;;;;;;3.20;99.90;;;;;;5071327;28;19950;-71
2022/01/09 14:22:40;;;;;;;;;;;3.20;99.90;;;;;;5071518;28;20386;-72
2022/01/09 14:25:08;;;;;;;;;;;3.40;99.90;;;;;;5070897;28;20320;-72
2022/01/09 14:27:35;;;;;;;;;;;3.50;99.90;;;;;;5071679;28;20005;-71
2022/01/09 14:30:02;;;;;;;;;;;3.60;99.90;;;;;;5071187;28;19908;-72
2022/01/09 14:32:28;;;;;;;;;;;3.70;99.90;;;;;;5071269;28;19992;-72
2022/01/09 14:34:55;;;;;;;;;;;3.70;99.90;;;;;;5070564;28;20008;-75